sensor_id;sensor_type;location;lat;lon;timestamp;pressure;altitude;pressure_sealevel;temperature;humidity
50636;BME280;36598;46.054;11.130;2023-03-15T05:02:12;98299.31;;;8.32;46.64
50636;BME280;36598;46.054;11.130;2023-03-15T05:04:37;98311.31;;;8.45;47.95
50636;BME280;36598;46.054;11.130;2023-03-15T05:07:02;98310.94;;;8.19;47.90
50636;BME280;36598;46.054;11.130;2023-03-15T05:09:28;98313.69;;;8.19;47.55
50636;BME280;36598;46.054;11.130;2023-03-15T05:11:53;98328.34;;;8.40;46.88
50636;BME280;36598;46.054;11.130;2023-03-15T05:14:19;98333.56;;;8.31;47.16
50636;BME280;36598;46.054;11.130;2023-03-15T05:16:44;98332.78;;;8.30;46.75
50636;BME280;36598;46.054;11.130;2023-03-15T05:19:12;98337.28;;;8.20;46.55
50636;BME280;36598;46.054;11.130;2023-03-15T05:21:37;98342.53;;;8.38;45.77
50636;BME280;36598;46.054;11.130;2023-03-15T05:24:02;98349.22;;;8.14;46.35
50636;BME280;36598;46.054;11.130;2023-03-15T05:26:28;98349.69;;;8.32;46.38
50636;BME280;36598;46.054;11.130;2023-03-15T05:28:53;98350.16;;;8.03;46.16
50636;BME280;36598;46.054;11.130;2023-03-15T05:31:18;98362.09;;;8.20;46.39
50636;BME280;36598;46.054;11.130;2023-03-15T05:33:44;98377.81;;;7.96;46.21
50636;BME280;36598;46.054;11.130;2023-03-15T05:36:13;98374.38;;;8.16;45.85
50636;BME280;36598;46.054;11.130;2023-03-15T05:38:39;98384.72;;;8.08;46.57
50636;BME280;36598;46.054;11.130;2023-03-15T05:41:06;98387.38;;;8.15;46.28
50636;BME280;36598;46.054;11.130;2023-03-15T05:43:31;98396.69;;;7.98;46.64
50636;BME280;36598;46.054;11.130;2023-03-15T05:45:56;98398.28;;;7.95;46.19
50636;BME280;36598;46.054;11.130;2023-03-15T05:48:22;98410.38;;;8.28;45.96
50636;BME280;36598;46.054;11.130;2023-03-15T05:50:47;98415.19;;;8.24;46.47
50636;BME280;36598;46.054;11.130;2023-03-15T05:53:12;98420.03;;;8.44;44.25
50636;BME280;36598;46.054;11.130;2023-03-15T05:55:37;98426.09;;;8.32;43.96
50636;BME280;36598;46.054;11.130;2023-03-15T05:58:03;98439.44;;;8.37;44.72
50636;BME280;36598;46.054;11.130;2023-03-15T06:00:29;98422.28;;;8.49;44.70
50636;BME280;36598;46.054;11.130;2023-03-15T06:02:54;98443.75;;;8.61;45.66
50636;BME280;36598;46.054;11.130;2023-03-15T06:05:20;98428.78;;;8.62;44.63
50636;BME280;36598;46.054;11.130;2023-03-15T06:07:45;98450.09;;;8.58;42.70
50636;BME280;36598;46.054;11.130;2023-03-15T06:10:10;98453.72;;;8.78;41.52
50636;BME280;36598;46.054;11.130;2023-03-15T06:12:35;98462.44;;;8.73;42.32
50636;BME280;36598;46.054;11.130;2023-03-15T06:15:01;98471.56;;;8.94;43.06
50636;BME280;36598;46.054;11.130;2023-03-15T06:17:26;98472.53;;;8.84;42.13
50636;BME280;36598;46.054;11.130;2023-03-15T06:19:51;98475.50;;;8.93;41.38
50636;BME280;36598;46.054;11.130;2023-03-15T06:22:16;98483.69;;;9.00;41.84
50636;BME280;36598;46.054;11.130;2023-03-15T06:24:44;98499.84;;;8.98;42.61
50636;BME280;36598;46.054;11.130;2023-03-15T06:27:09;98489.13;;;8.80;41.84
50636;BME280;36598;46.054;11.130;2023-03-15T06:29:35;98496.56;;;9.07;40.87
50636;BME280;36598;46.054;11.130;2023-03-15T06:32:00;98504.84;;;9.07;41.83
50636;BME280;36598;46.054;11.130;2023-03-15T06:34:25;98498.19;;;9.04;41.85
50636;BME280;36598;46.054;11.130;2023-03-15T06:36:51;98518.56;;;9.10;40.02
50636;BME280;36598;46.054;11.130;2023-03-15T06:39:19;98507.41;;;9.17;41.50
50636;BME280;36598;46.054;11.130;2023-03-15T06:41:45;98523.75;;;9.28;41.06
50636;BME280;36598;46.054;11.130;2023-03-15T06:44:10;98501.19;;;9.33;41.11
50636;BME280;36598;46.054;11.130;2023-03-15T06:46:36;98525.25;;;9.33;40.59
50636;BME280;36598;46.054;11.130;2023-03-15T06:49:01;98526.84;;;9.34;40.84
50636;BME280;36598;46.054;11.130;2023-03-15T06:51:27;98544.09;;;9.38;41.62
50636;BME280;36598;46.054;11.130;2023-03-15T06:53:53;98541.88;;;9.29;40.53
50636;BME280;36598;46.054;11.130;2023-03-15T06:56:18;98550.69;;;9.44;39.77
50636;BME280;36598;46.054;11.130;2023-03-15T06:58:43;98547.72;;;9.35;38.31
50636;BME280;36598;46.054;11.130;2023-03-15T07:01:12;98549.59;;;9.61;37.29
50636;BME280;36598;46.054;11.130;2023-03-15T07:03:37;98557.59;;;9.56;36.26
50636;BME280;36598;46.054;11.130;2023-03-15T07:06:03;98549.91;;;13.61;29.02
50636;BME280;36598;46.054;11.130;2023-03-15T07:08:28;98529.97;;;21.62;19.36
50636;BME280;36598;46.054;11.130;2023-03-15T07:10:54;98546.41;;;25.28;15.89
50636;BME280;36598;46.054;11.130;2023-03-15T07:13:19;98553.97;;;28.72;13.37
50636;BME280;36598;46.054;11.130;2023-03-15T07:15:44;98548.66;;;29.82;11.52
50636;BME280;36598;46.054;11.130;2023-03-15T07:18:11;98543.06;;;32.22;10.38
50636;BME280;36598;46.054;11.130;2023-03-15T07:20:37;98545.88;;;30.95;10.52
50636;BME280;36598;46.054;11.130;2023-03-15T07:23:02;98558.41;;;33.17;9.19
50636;BME280;36598;46.054;11.130;2023-03-15T07:25:27;98565.97;;;31.74;9.16
50636;BME280;36598;46.054;11.130;2023-03-15T07:27:52;98561.41;;;33.01;8.00
50636;BME280;36598;46.054;11.130;2023-03-15T07:30:19;98574.78;;;29.94;9.28
50636;BME280;36598;46.054;11.130;2023-03-15T07:32:44;98593.91;;;33.81;7.44
50636;BME280;36598;46.054;11.130;2023-03-15T07:35:09;98598.34;;;34.80;7.65
50636;BME280;36598;46.054;11.130;2023-03-15T07:37:35;98597.00;;;36.64;7.06
50636;BME280;36598;46.054;11.130;2023-03-15T07:40:00;98620.13;;;34.12;7.49
50636;BME280;36598;46.054;11.130;2023-03-15T07:42:36;98606.16;;;34.70;6.78
50636;BME280;36598;46.054;11.130;2023-03-15T07:45:03;98606.22;;;33.74;7.29
50636;BME280;36598;46.054;11.130;2023-03-15T07:47:28;98605.69;;;36.44;6.69
50636;BME280;36598;46.054;11.130;2023-03-15T07:49:54;98621.91;;;34.25;7.05
50636;BME280;36598;46.054;11.130;2023-03-15T07:52:19;98635.09;;;33.93;7.20
50636;BME280;36598;46.054;11.130;2023-03-15T07:54:45;98630.25;;;34.13;6.85
50636;BME280;36598;46.054;11.130;2023-03-15T07:57:11;98644.06;;;30.61;8.08
50636;BME280;36598;46.054;11.130;2023-03-15T07:59:36;98645.22;;;33.09;6.93
50636;BME280;36598;46.054;11.130;2023-03-15T08:02:01;98640.41;;;33.62;6.65
50636;BME280;36598;46.054;11.130;2023-03-15T08:04:27;98654.91;;;30.71;7.97
50636;BME280;36598;46.054;11.130;2023-03-15T08:06:52;98654.13;;;32.15;7.27
50636;BME280;36598;46.054;11.130;2023-03-15T08:09:17;98645.63;;;31.77;7.53
50636;BME280;36598;46.054;11.130;2023-03-15T08:11:43;98656.47;;;33.57;6.73
50636;BME280;36598;46.054;11.130;2023-03-15T08:14:08;98679.97;;;33.63;6.54
50636;BME280;36598;46.054;11.130;2023-03-15T08:16:33;98667.63;;;33.53;6.94
50636;BME280;36598;46.054;11.130;2023-03-15T08:18:58;98673.25;;;35.56;5.67
50636;BME280;36598;46.054;11.130;2023-03-15T08:21:24;98678.41;;;33.45;6.21
50636;BME280;36598;46.054;11.130;2023-03-15T08:23:49;98661.69;;;32.76;6.33
50636;BME280;36598;46.054;11.130;2023-03-15T08:26:14;98683.34;;;30.76;7.23
50636;BME280;36598;46.054;11.130;2023-03-15T08:28:40;98683.53;;;32.89;6.08
50636;BME280;36598;46.054;11.130;2023-03-15T08:31:06;98688.53;;;31.01;6.57
50636;BME280;36598;46.054;11.130;2023-03-15T08:33:31;98695.00;;;30.42;6.60
50636;BME280;36598;46.054;11.130;2023-03-15T08:35:57;98703.19;;;30.89;6.52
50636;BME280;36598;46.054;11.130;2023-03-15T08:38:22;98704.38;;;29.15;6.68
50636;BME280;36598;46.054;11.130;2023-03-15T08:40:47;98720.16;;;31.10;6.37
50636;BME280;36598;46.054;11.130;2023-03-15T08:43:13;98705.63;;;30.34;6.79
50636;BME280;36598;46.054;11.130;2023-03-15T08:45:38;98707.66;;;30.69;6.54
50636;BME280;36598;46.054;11.130;2023-03-15T08:48:03;98707.28;;;29.93;5.97
50636;BME280;36598;46.054;11.130;2023-03-15T08:50:29;98719.63;;;31.96;6.09
50636;BME280;36598;46.054;11.130;2023-03-15T08:52:55;98705.34;;;31.35;6.00
50636;BME280;36598;46.054;11.130;2023-03-15T08:55:21;98720.69;;;32.16;5.93
50636;BME280;36598;46.054;11.130;2023-03-15T08:57:46;98710.16;;;33.39;5.48
50636;BME280;36598;46.054;11.130;2023-03-15T09:00:12;98723.59;;;31.16;6.22
50636;BME280;36598;46.054;11.130;2023-03-15T09:02:45;98712.25;;;34.41;5.35
50636;BME280;36598;46.054;11.130;2023-03-15T09:05:12;98731.44;;;31.77;6.38
50636;BME280;36598;46.054;11.130;2023-03-15T09:07:38;98713.50;;;32.63;5.31
50636;BME280;36598;46.054;11.130;2023-03-15T09:10:03;98728.41;;;31.37;5.91
50636;BME280;36598;46.054;11.130;2023-03-15T09:12:29;98729.91;;;31.76;6.17
50636;BME280;36598;46.054;11.130;2023-03-15T09:14:55;98734.59;;;32.83;5.30
50636;BME280;36598;46.054;11.130;2023-03-15T09:17:20;98740.78;;;29.09;6.74
50636;BME280;36598;46.054;11.130;2023-03-15T09:19:45;98737.19;;;31.54;6.17
50636;BME280;36598;46.054;11.130;2023-03-15T09:22:10;98733.84;;;32.42;5.45
50636;BME280;36598;46.054;11.130;2023-03-15T09:24:36;98727.53;;;30.83;6.20
50636;BME280;36598;46.054;11.130;2023-03-15T09:27:01;98740.50;;;30.11;6.33
50636;BME280;36598;46.054;11.130;2023-03-15T09:29:27;98750.75;;;30.79;6.41
50636;BME280;36598;46.054;11.130;2023-03-15T09:31:52;98733.06;;;30.44;6.91
50636;BME280;36598;46.054;11.130;2023-03-15T09:34:17;98742.69;;;28.32;7.18
50636;BME280;36598;46.054;11.130;2023-03-15T09:36:42;98757.94;;;25.93;8.28
50636;BME280;36598;46.054;11.130;2023-03-15T09:39:08;98768.88;;;26.89;8.31
50636;BME280;36598;46.054;11.130;2023-03-15T09:46:54;98768.75;;;26.62;8.41
50636;BME280;36598;46.054;11.130;2023-03-15T09:49:31;98771.75;;;26.70;8.32
50636;BME280;36598;46.054;11.130;2023-03-15T09:51:59;98762.78;;;25.68;8.06
50636;BME280;36598;46.054;11.130;2023-03-15T09:57:03;98769.16;;;23.81;7.74
50636;BME280;36598;46.054;11.130;2023-03-15T09:59:33;98769.59;;;24.18;8.83
50636;BME280;36598;46.054;11.130;2023-03-15T10:02:22;98758.00;;;24.33;8.69
50636;BME280;36598;46.054;11.130;2023-03-15T10:04:44;98789.22;;;23.49;9.30
50636;BME280;36598;46.054;11.130;2023-03-15T10:07:12;98770.75;;;23.26;9.00
50636;BME280;36598;46.054;11.130;2023-03-15T10:09:38;98771.19;;;23.97;9.03
50636;BME280;36598;46.054;11.130;2023-03-15T10:12:04;98778.69;;;23.33;8.95
50636;BME280;36598;46.054;11.130;2023-03-15T10:17:39;98797.66;;;23.38;9.07
50636;BME280;36598;46.054;11.130;2023-03-15T10:20:14;98797.41;;;23.53;9.22
50636;BME280;36598;46.054;11.130;2023-03-15T10:27:40;98784.03;;;22.97;9.38
50636;BME280;36598;46.054;11.130;2023-03-15T10:30:17;98801.03;;;22.48;9.08
50636;BME280;36598;46.054;11.130;2023-03-15T10:32:43;98796.41;;;22.45;9.38
50636;BME280;36598;46.054;11.130;2023-03-15T10:35:13;98808.81;;;22.16;9.83
50636;BME280;36598;46.054;11.130;2023-03-15T10:37:39;98811.41;;;22.25;8.95
50636;BME280;36598;46.054;11.130;2023-03-15T10:40:07;98809.06;;;21.23;9.30
50636;BME280;36598;46.054;11.130;2023-03-15T10:42:39;98816.31;;;22.31;8.94
50636;BME280;36598;46.054;11.130;2023-03-15T10:47:42;98813.09;;;22.06;9.57
50636;BME280;36598;46.054;11.130;2023-03-15T10:50:08;98807.75;;;22.14;9.60
50636;BME280;36598;46.054;11.130;2023-03-15T10:52:35;98806.84;;;22.99;9.39
50636;BME280;36598;46.054;11.130;2023-03-15T10:55:04;98817.88;;;22.91;8.75
50636;BME280;36598;46.054;11.130;2023-03-15T10:57:32;98824.34;;;22.49;8.90
50636;BME280;36598;46.054;11.130;2023-03-15T10:59:59;98812.25;;;22.37;8.50
50636;BME280;36598;46.054;11.130;2023-03-15T11:02:47;98806.81;;;21.85;9.27
50636;BME280;36598;46.054;11.130;2023-03-15T11:05:15;98816.13;;;21.65;9.61
50636;BME280;36598;46.054;11.130;2023-03-15T11:07:59;98814.81;;;21.61;9.33
50636;BME280;36598;46.054;11.130;2023-03-15T11:10:26;98816.75;;;22.18;9.61
50636;BME280;36598;46.054;11.130;2023-03-15T11:15:36;98809.91;;;21.04;9.86
50636;BME280;36598;46.054;11.130;2023-03-15T11:18:01;98804.41;;;21.41;9.32
50636;BME280;36598;46.054;11.130;2023-03-15T11:20:31;98815.63;;;21.35;9.47
50636;BME280;36598;46.054;11.130;2023-03-15T11:22:59;98811.81;;;21.70;8.97
50636;BME280;36598;46.054;11.130;2023-03-15T11:25:29;98806.41;;;21.66;9.47
50636;BME280;36598;46.054;11.130;2023-03-15T11:27:55;98808.84;;;21.53;8.90
50636;BME280;36598;46.054;11.130;2023-03-15T11:30:23;98807.56;;;20.76;9.04
50636;BME280;36598;46.054;11.130;2023-03-15T11:32:49;98808.63;;;21.31;9.11
50636;BME280;36598;46.054;11.130;2023-03-15T11:38:03;98804.66;;;20.65;9.16
50636;BME280;36598;46.054;11.130;2023-03-15T11:40:37;98797.22;;;20.47;8.89
50636;BME280;36598;46.054;11.130;2023-03-15T11:43:18;98792.13;;;19.90;10.09
50636;BME280;36598;46.054;11.130;2023-03-15T11:46:03;98803.84;;;20.23;9.61
50636;BME280;36598;46.054;11.130;2023-03-15T11:48:32;98783.50;;;20.95;9.95
50636;BME280;36598;46.054;11.130;2023-03-15T11:51:01;98794.19;;;21.17;10.34
50636;BME280;36598;46.054;11.130;2023-03-15T11:56:28;98786.53;;;20.92;9.89
50636;BME280;36598;46.054;11.130;2023-03-15T11:59:14;98783.13;;;20.41;10.29
50636;BME280;36598;46.054;11.130;2023-03-15T12:06:56;98781.53;;;19.79;9.20
50636;BME280;36598;46.054;11.130;2023-03-15T12:10:16;98764.81;;;18.96;9.99
50636;BME280;36598;46.054;11.130;2023-03-15T12:14:50;98773.63;;;17.78;11.81
50636;BME280;36598;46.054;11.130;2023-03-15T12:19:56;98778.84;;;18.57;10.68
50636;BME280;36598;46.054;11.130;2023-03-15T12:22:22;98753.13;;;18.44;10.68
50636;BME280;36598;46.054;11.130;2023-03-15T12:24:48;98761.63;;;18.49;11.19
50636;BME280;36598;46.054;11.130;2023-03-15T12:27:17;98762.50;;;18.80;10.46
50636;BME280;36598;46.054;11.130;2023-03-15T12:29:44;98762.13;;;18.87;10.94
50636;BME280;36598;46.054;11.130;2023-03-15T12:34:36;98764.75;;;18.90;10.37
50636;BME280;36598;46.054;11.130;2023-03-15T12:37:08;98759.41;;;18.39;10.74
50636;BME280;36598;46.054;11.130;2023-03-15T12:52:52;98755.13;;;18.29;9.94
50636;BME280;36598;46.054;11.130;2023-03-15T12:55:23;98743.13;;;18.67;11.75
50636;BME280;36598;46.054;11.130;2023-03-15T12:57:51;98743.28;;;18.10;11.19
50636;BME280;36598;46.054;11.130;2023-03-15T13:00:22;98737.41;;;17.98;9.18
50636;BME280;36598;46.054;11.130;2023-03-15T13:02:51;98736.22;;;18.14;10.27
50636;BME280;36598;46.054;11.130;2023-03-15T13:10:17;98735.13;;;18.21;10.85
50636;BME280;36598;46.054;11.130;2023-03-15T13:12:51;98733.50;;;18.05;11.07
50636;BME280;36598;46.054;11.130;2023-03-15T13:15:22;98723.00;;;18.15;10.51
50636;BME280;36598;46.054;11.130;2023-03-15T13:17:51;98731.91;;;18.52;12.96
50636;BME280;36598;46.054;11.130;2023-03-15T13:25:21;98732.38;;;17.12;10.21
50636;BME280;36598;46.054;11.130;2023-03-15T13:30:31;98741.13;;;16.96;9.92
50636;BME280;36598;46.054;11.130;2023-03-15T13:35:45;98740.03;;;16.93;11.57
50636;BME280;36598;46.054;11.130;2023-03-15T13:40:45;98731.75;;;17.50;9.66
50636;BME280;36598;46.054;11.130;2023-03-15T13:43:11;98724.25;;;17.90;10.92
50636;BME280;36598;46.054;11.130;2023-03-15T13:45:37;98737.56;;;18.04;11.09
50636;BME280;36598;46.054;11.130;2023-03-15T13:48:05;98745.19;;;18.04;11.70
50636;BME280;36598;46.054;11.130;2023-03-15T13:50:31;98744.44;;;17.94;11.20
50636;BME280;36598;46.054;11.130;2023-03-15T13:52:56;98742.56;;;18.00;11.67
50636;BME280;36598;46.054;11.130;2023-03-15T13:55:22;98753.19;;;17.11;10.44
50636;BME280;36598;46.054;11.130;2023-03-15T13:57:51;98749.47;;;17.57;11.92
50636;BME280;36598;46.054;11.130;2023-03-15T14:00:18;98746.66;;;17.90;11.66
50636;BME280;36598;46.054;11.130;2023-03-15T14:05:16;98745.47;;;18.06;11.74
50636;BME280;36598;46.054;11.130;2023-03-15T14:07:47;98747.56;;;17.63;10.00
50636;BME280;36598;46.054;11.130;2023-03-15T14:12:41;98749.09;;;17.31;11.01
50636;BME280;36598;46.054;11.130;2023-03-15T14:15:15;98744.03;;;17.53;10.12
50636;BME280;36598;46.054;11.130;2023-03-15T14:17:50;98751.94;;;17.55;13.25
50636;BME280;36598;46.054;11.130;2023-03-15T14:20:17;98746.66;;;17.90;11.98
50636;BME280;36598;46.054;11.130;2023-03-15T14:22:42;98753.41;;;17.83;11.08
50636;BME280;36598;46.054;11.130;2023-03-15T14:25:20;98750.88;;;17.85;12.61
50636;BME280;36598;46.054;11.130;2023-03-15T14:27:47;98740.78;;;17.88;10.34
50636;BME280;36598;46.054;11.130;2023-03-15T14:30:17;98758.81;;;17.87;11.09
50636;BME280;36598;46.054;11.130;2023-03-15T14:32:53;98766.09;;;17.51;12.03
50636;BME280;36598;46.054;11.130;2023-03-15T14:37:45;98767.72;;;17.34;12.77
50636;BME280;36598;46.054;11.130;2023-03-15T14:42:40;98765.97;;;16.94;11.65
50636;BME280;36598;46.054;11.130;2023-03-15T14:45:07;98778.84;;;16.91;12.35
50636;BME280;36598;46.054;11.130;2023-03-15T14:47:33;98779.38;;;17.32;13.26
50636;BME280;36598;46.054;11.130;2023-03-15T14:50:01;98776.66;;;17.05;10.76
50636;BME280;36598;46.054;11.130;2023-03-15T14:52:27;98786.44;;;17.09;10.87
50636;BME280;36598;46.054;11.130;2023-03-15T14:54:52;98782.72;;;16.94;11.46
50636;BME280;36598;46.054;11.130;2023-03-15T14:57:18;98784.97;;;17.32;12.07
50636;BME280;36598;46.054;11.130;2023-03-15T14:59:43;98778.41;;;16.84;10.28
50636;BME280;36598;46.054;11.130;2023-03-15T15:02:11;98791.69;;;17.16;11.25
50636;BME280;36598;46.054;11.130;2023-03-15T15:04:39;98794.81;;;17.18;11.55
50636;BME280;36598;46.054;11.130;2023-03-15T15:07:08;98796.72;;;16.66;11.46
50636;BME280;36598;46.054;11.130;2023-03-15T15:09:34;98788.28;;;16.20;10.92
50636;BME280;36598;46.054;11.130;2023-03-15T15:12:00;98797.31;;;16.43;12.06
50636;BME280;36598;46.054;11.130;2023-03-15T15:14:25;98798.38;;;16.27;10.98
50636;BME280;36598;46.054;11.130;2023-03-15T15:16:51;98798.97;;;16.13;10.58
50636;BME280;36598;46.054;11.130;2023-03-15T15:19:16;98797.31;;;16.43;11.61
50636;BME280;36598;46.054;11.130;2023-03-15T15:21:41;98801.34;;;16.42;11.51
50636;BME280;36598;46.054;11.130;2023-03-15T15:24:14;98808.63;;;16.48;11.52
50636;BME280;36598;46.054;11.130;2023-03-15T15:26:39;98784.97;;;15.85;10.70
50636;BME280;36598;46.054;11.130;2023-03-15T15:29:05;98808.22;;;15.91;11.18
50636;BME280;36598;46.054;11.130;2023-03-15T15:31:30;98801.69;;;15.85;12.55
50636;BME280;36598;46.054;11.130;2023-03-15T15:33:58;98803.97;;;15.68;11.18
50636;BME280;36598;46.054;11.130;2023-03-15T15:38:49;98806.97;;;15.21;11.29
50636;BME280;36598;46.054;11.130;2023-03-15T15:41:17;98809.38;;;15.41;11.61
50636;BME280;36598;46.054;11.130;2023-03-15T15:43:46;98801.50;;;15.80;11.78
50636;BME280;36598;46.054;11.130;2023-03-15T15:46:11;98802.91;;;15.44;11.64
50636;BME280;36598;46.054;11.130;2023-03-15T15:48:37;98814.22;;;15.18;11.74
50636;BME280;36598;46.054;11.130;2023-03-15T15:51:07;98815.25;;;14.90;11.28
50636;BME280;36598;46.054;11.130;2023-03-15T15:53:36;98819.19;;;14.58;12.13
50636;BME280;36598;46.054;11.130;2023-03-15T15:56:01;98820.94;;;14.64;11.79
50636;BME280;36598;46.054;11.130;2023-03-15T15:58:27;98825.06;;;14.60;12.32
50636;BME280;36598;46.054;11.130;2023-03-15T16:00:52;98823.88;;;14.48;12.15
50636;BME280;36598;46.054;11.130;2023-03-15T16:03:17;98816.44;;;14.80;12.47
50636;BME280;36598;46.054;11.130;2023-03-15T16:05:42;98834.13;;;14.51;11.77
50636;BME280;36598;46.054;11.130;2023-03-15T16:08:18;98825.34;;;14.40;12.34
50636;BME280;36598;46.054;11.130;2023-03-15T16:10:44;98829.34;;;14.51;12.79
50636;BME280;36598;46.054;11.130;2023-03-15T16:13:10;98840.16;;;14.37;11.99
50636;BME280;36598;46.054;11.130;2023-03-15T16:15:36;98850.22;;;14.09;12.63
50636;BME280;36598;46.054;11.130;2023-03-15T16:18:01;98845.94;;;14.29;13.24
50636;BME280;36598;46.054;11.130;2023-03-15T16:20:26;98843.53;;;14.19;13.19
50636;BME280;36598;46.054;11.130;2023-03-15T16:22:55;98850.78;;;14.16;13.18
50636;BME280;36598;46.054;11.130;2023-03-15T16:25:22;98848.06;;;14.25;13.21
50636;BME280;36598;46.054;11.130;2023-03-15T16:27:50;98859.69;;;13.86;13.37
50636;BME280;36598;46.054;11.130;2023-03-15T16:30:26;98873.63;;;13.31;13.56
50636;BME280;36598;46.054;11.130;2023-03-15T16:32:52;98862.66;;;13.40;13.02
50636;BME280;36598;46.054;11.130;2023-03-15T16:35:25;98877.34;;;13.41;13.20
50636;BME280;36598;46.054;11.130;2023-03-15T16:37:55;98877.25;;;13.15;13.65
50636;BME280;36598;46.054;11.130;2023-03-15T16:40:24;98883.50;;;13.19;13.20
50636;BME280;36598;46.054;11.130;2023-03-15T16:42:50;98880.53;;;13.10;13.53
50636;BME280;36598;46.054;11.130;2023-03-15T16:45:16;98894.66;;;13.03;13.53
50636;BME280;36598;46.054;11.130;2023-03-15T16:47:41;98891.03;;;12.90;13.50
50636;BME280;36598;46.054;11.130;2023-03-15T16:50:07;98897.84;;;13.01;12.89
50636;BME280;36598;46.054;11.130;2023-03-15T16:52:32;98905.63;;;12.94;13.85
50636;BME280;36598;46.054;11.130;2023-03-15T16:54:58;98908.63;;;12.99;13.50
50636;BME280;36598;46.054;11.130;2023-03-15T16:57:24;98915.66;;;13.04;13.08
50636;BME280;36598;46.054;11.130;2023-03-15T16:59:49;98917.97;;;13.06;14.14
50636;BME280;36598;46.054;11.130;2023-03-15T17:02:16;98921.38;;;12.97;13.25
50636;BME280;36598;46.054;11.130;2023-03-15T17:04:42;98928.09;;;12.83;14.70
50636;BME280;36598;46.054;11.130;2023-03-15T17:07:08;98934.59;;;12.93;14.29
50636;BME280;36598;46.054;11.130;2023-03-15T17:09:34;98938.66;;;12.88;14.22
50636;BME280;36598;46.054;11.130;2023-03-15T17:12:02;98939.13;;;12.87;13.34
50636;BME280;36598;46.054;11.130;2023-03-15T17:14:28;98950.31;;;12.83;14.24
50636;BME280;36598;46.054;11.130;2023-03-15T17:16:54;98960.19;;;12.84;16.31
50636;BME280;36598;46.054;11.130;2023-03-15T17:19:20;98961.25;;;12.90;14.56
50636;BME280;36598;46.054;11.130;2023-03-15T17:21:45;98965.34;;;12.69;14.80
50636;BME280;36598;46.054;11.130;2023-03-15T17:24:11;98964.97;;;12.84;15.41
50636;BME280;36598;46.054;11.130;2023-03-15T17:26:37;98969.66;;;12.87;14.68
50636;BME280;36598;46.054;11.130;2023-03-15T17:29:04;98974.19;;;12.81;15.30
50636;BME280;36598;46.054;11.130;2023-03-15T17:31:29;98988.84;;;12.81;15.28
50636;BME280;36598;46.054;11.130;2023-03-15T17:33:56;98988.94;;;12.61;18.25
50636;BME280;36598;46.054;11.130;2023-03-15T17:36:22;98994.22;;;12.72;16.54
50636;BME280;36598;46.054;11.130;2023-03-15T17:38:48;99001.25;;;12.60;17.85
50636;BME280;36598;46.054;11.130;2023-03-15T17:41:18;99006.63;;;12.51;17.99
50636;BME280;36598;46.054;11.130;2023-03-15T17:43:45;99009.22;;;12.58;17.14
50636;BME280;36598;46.054;11.130;2023-03-15T17:46:11;99014.78;;;12.58;16.43
50636;BME280;36598;46.054;11.130;2023-03-15T17:48:36;99019.25;;;12.36;17.30
50636;BME280;36598;46.054;11.130;2023-03-15T17:51:02;99029.16;;;12.53;17.67
50636;BME280;36598;46.054;11.130;2023-03-15T17:53:27;99030.22;;;12.59;17.84
50636;BME280;36598;46.054;11.130;2023-03-15T17:55:53;99038.25;;;12.37;17.68
50636;BME280;36598;46.054;11.130;2023-03-15T17:58:19;99041.16;;;12.14;18.00
50636;BME280;36598;46.054;11.130;2023-03-15T18:00:45;99040.94;;;12.41;17.48
50636;BME280;36598;46.054;11.130;2023-03-15T18:03:12;99056.69;;;12.27;18.32
50636;BME280;36598;46.054;11.130;2023-03-15T18:05:39;99059.06;;;12.29;18.25
50636;BME280;36598;46.054;11.130;2023-03-15T18:08:04;99060.53;;;12.34;17.06
50636;BME280;36598;46.054;11.130;2023-03-15T18:10:34;99067.13;;;12.03;17.68
50636;BME280;36598;46.054;11.130;2023-03-15T18:13:00;99079.34;;;12.06;19.90
50636;BME280;36598;46.054;11.130;2023-03-15T18:15:26;99073.16;;;11.98;18.22
50636;BME280;36598;46.054;11.130;2023-03-15T18:17:51;99080.13;;;11.87;19.96
50636;BME280;36598;46.054;11.130;2023-03-15T18:20:17;99088.91;;;11.82;19.05
50636;BME280;36598;46.054;11.130;2023-03-15T18:22:43;99097.47;;;12.11;18.25
50636;BME280;36598;46.054;11.130;2023-03-15T18:25:18;99096.97;;;12.16;18.65
50636;BME280;36598;46.054;11.130;2023-03-15T18:27:44;99098.13;;;11.75;18.30
50636;BME280;36598;46.054;11.130;2023-03-15T18:30:10;99104.09;;;11.97;20.40
50636;BME280;36598;46.054;11.130;2023-03-15T18:32:36;99104.25;;;11.66;19.38
50636;BME280;36598;46.054;11.130;2023-03-15T18:35:01;99099.59;;;11.83;18.64
50636;BME280;36598;46.054;11.130;2023-03-15T18:37:26;99112.41;;;11.97;18.80
50636;BME280;36598;46.054;11.130;2023-03-15T18:39:51;99112.13;;;11.91;18.33
50636;BME280;36598;46.054;11.130;2023-03-15T18:42:18;99116.88;;;11.67;18.27
50636;BME280;36598;46.054;11.130;2023-03-15T18:44:43;99118.81;;;11.70;18.57
50636;BME280;36598;46.054;11.130;2023-03-15T18:47:09;99119.16;;;11.72;17.87
50636;BME280;36598;46.054;11.130;2023-03-15T18:49:34;99133.00;;;11.29;18.63
50636;BME280;36598;46.054;11.130;2023-03-15T18:52:00;99140.28;;;11.43;18.23
50636;BME280;36598;46.054;11.130;2023-03-15T18:54:25;99144.53;;;11.47;18.55
50636;BME280;36598;46.054;11.130;2023-03-15T18:56:50;99135.44;;;11.47;18.52
50636;BME280;36598;46.054;11.130;2023-03-15T18:59:16;99149.59;;;11.29;17.88
50636;BME280;36598;46.054;11.130;2023-03-15T19:01:42;99145.03;;;11.42;17.84
50636;BME280;36598;46.054;11.130;2023-03-15T19:04:08;99152.56;;;11.42;19.04
50636;BME280;36598;46.054;11.130;2023-03-15T19:06:33;99162.38;;;11.46;18.55
50636;BME280;36598;46.054;11.130;2023-03-15T19:08:58;99159.94;;;11.52;19.10
50636;BME280;36598;46.054;11.130;2023-03-15T19:11:24;99160.28;;;11.31;18.76
50636;BME280;36598;46.054;11.130;2023-03-15T19:13:51;99157.28;;;11.45;18.73
50636;BME280;36598;46.054;11.130;2023-03-15T19:16:17;99163.59;;;11.45;18.70
50636;BME280;36598;46.054;11.130;2023-03-15T19:18:42;99167.13;;;11.46;18.98